Huslia Airport Huslia US
ICAO: PAHL
IATA:
Category: Medium
Scheduled Services:

Elevation: 220 ft
TransAlt. 18000 ft.

Airport Communications:
AWOS 3:135.75
ANCHORAGE CNTR:127
CTAF:122.8
FAIRBANKS RDO:122.4

PAHL Zoom In..

If you have problems with the map follow the link
https://www.worldairports.se/pages/airport.php?
ICAO=PAHL

Runways:

(A) RW 03 length 4000 ft width 75 ft
---- / hdg 32

(B) RW 21 length 4000 ft width 75 ft
---- / hdg 212

Location; PAHL
Day. 21 / Time. 19.56 Zulu
* Altimeter: 29.60
* Temperature: -30° c. 22°f.
* Wind from: 000° Speed 00 kn.
Dewpoint: -33° c.
Visibility: 10 Statute Miles.
Clouds: Clear (automated report).

PAHL 211956Z AUTO 00000KT 10SM CLR M30/M33 A2960 RMK AO2 SLP033 T13001328 FZRANO


Wind - Calm.

 
 
jpsmedia worldairports.se 2020   terms of use